Time;durP1;ratioP1;P1;durP2;ratioP2;P2;SDS_P1;SDS_P2;PMS_P1;PMS_P2;Temp;Humidity;BMP_temperature;BMP_pressure;BME280_temperature;BME280_humidity;BME280_pressure;Samples;Min_cycle;Max_cycle;Signal;HPM_P1;HPM_P2
2023/05/14 00:01:24;;;;;;;11.75;6.70;;;;;;;14.38;47.12;100669.78;5015413;28;97340;-71
2023/05/14 00:03:49;;;;;;;13.68;6.60;;;;;;;14.45;47.16;100681.78;5050418;27;97589;-71
2023/05/14 00:06:15;;;;;;;13.73;6.43;;;;;;;14.45;47.47;100694.97;5052464;27;97423;-71
2023/05/14 00:08:40;;;;;;;9.77;6.15;;;;;;;14.56;47.13;100696.34;5046140;27;97325;-71
2023/05/14 00:11:07;;;;;;;9.90;6.50;;;;;;;14.50;47.75;100690.34;5033132;27;96846;-74
2023/05/14 00:13:34;;;;;;;11.30;6.63;;;;;;;14.40;47.26;100686.44;5025587;27;101392;-71
2023/05/14 00:15:59;;;;;;;10.27;6.38;;;;;;;14.33;47.71;100690.25;5030590;27;101615;-71
2023/05/14 00:18:25;;;;;;;11.35;6.80;;;;;;;14.42;47.66;100687.19;5024167;27;96842;-71
2023/05/14 00:20:53;;;;;;;12.18;6.15;;;;;;;14.36;47.75;100689.25;5027558;27;96731;-71
2023/05/14 00:23:20;;;;;;;10.52;5.85;;;;;;;14.39;47.48;100683.84;5056654;27;97648;-71
2023/05/14 00:25:45;;;;;;;13.80;5.90;;;;;;;14.25;47.98;100680.03;5029265;27;97584;-70
2023/05/14 00:28:11;;;;;;;12.60;5.63;;;;;;;14.34;47.49;100680.53;5071889;27;96848;-71
2023/05/14 00:30:37;;;;;;;13.52;6.45;;;;;;;14.26;47.34;100687.03;5055983;27;96920;-71
2023/05/14 00:33:02;;;;;;;13.82;5.43;;;;;;;14.20;47.31;100687.28;5055166;27;100075;-71
2023/05/14 00:35:28;;;;;;;15.38;5.78;;;;;;;14.24;47.63;100695.94;5054214;27;97791;-71
2023/05/14 00:37:53;;;;;;;10.55;5.85;;;;;;;14.23;47.58;100692.44;5054642;27;96865;-71
2023/05/14 00:40:19;;;;;;;10.80;4.93;;;;;;;14.26;47.67;100688.81;5054736;27;97398;-71
2023/05/14 00:42:45;;;;;;;10.93;5.82;;;;;;;14.40;47.16;100691.72;5072201;27;97939;-71
2023/05/14 00:45:10;;;;;;;10.50;5.60;;;;;;;14.44;47.17;100690.63;5071275;27;97881;-71
2023/05/14 00:47:38;;;;;;;11.20;5.30;;;;;;;14.49;47.05;100688.66;5055189;27;97150;-71
2023/05/14 00:50:04;;;;;;;13.52;5.65;;;;;;;14.51;47.18;100680.66;5047827;27;96921;-71
2023/05/14 00:52:31;;;;;;;9.07;5.45;;;;;;;14.49;46.84;100670.16;5054332;27;101119;-71
2023/05/14 00:54:57;;;;;;;9.07;5.20;;;;;;;14.62;47.02;100690.78;5041427;27;101272;-71
2023/05/14 00:57:23;;;;;;;10.68;5.20;;;;;;;14.39;47.42;100686.47;5071236;27;97219;-71
2023/05/14 00:59:48;;;;;;;9.30;5.63;;;;;;;14.50;47.61;100687.72;5074179;27;96950;-71
2023/05/14 01:02:15;;;;;;;10.63;4.93;;;;;;;14.46;47.95;100672.09;5074682;27;98068;-71
2023/05/14 01:04:40;;;;;;;18.50;5.53;;;;;;;14.54;47.67;100683.19;5067331;27;97843;-71
2023/05/14 01:07:43;;;;;;;6.75;4.95;;;;;;;14.58;47.61;100686.56;5076189;27;97160;-71
2023/05/14 01:10:31;;;;;;;10.32;5.53;;;;;;;14.57;47.66;100680.41;5058223;27;97538;-71
2023/05/14 01:12:57;;;;;;;10.88;5.75;;;;;;;14.58;47.84;100681.28;5075225;27;98525;-71
2023/05/14 01:15:27;;;;;;;6.82;4.75;;;;;;;14.39;48.00;100666.22;5076235;27;97440;-71
2023/05/14 01:17:55;;;;;;;9.13;5.93;;;;;;;14.54;48.23;100682.34;5072700;27;96758;-71
2023/05/14 01:20:21;;;;;;;8.65;5.72;;;;;;;14.48;47.74;100673.72;5073082;27;97327;-71
2023/05/14 01:22:46;;;;;;;11.75;5.78;;;;;;;14.53;47.77;100676.19;5055232;27;101280;-71
2023/05/14 01:25:12;;;;;;;9.05;5.68;;;;;;;14.52;47.54;100668.34;5067486;27;97989;-71
2023/05/14 01:28:16;;;;;;;11.60;5.82;;;;;;;14.18;47.80;100659.25;5015402;27;97128;-71
2023/05/14 01:31:00;;;;;;;10.90;6.00;;;;;;;14.24;48.16;100678.31;5012393;27;97111;-72
2023/05/14 01:33:28;;;;;;;9.55;5.65;;;;;;;13.98;48.65;100678.56;5000660;27;101317;-71
2023/05/14 01:35:54;;;;;;;10.48;5.88;;;;;;;14.06;48.57;100670.34;5035197;27;101089;-71
2023/05/14 01:38:21;;;;;;;11.10;6.15;;;;;;;13.87;49.08;100673.72;5016028;27;97754;-71
2023/05/14 01:40:48;;;;;;;11.48;6.75;;;;;;;13.44;49.63;100670.25;5014495;27;97320;-71
2023/05/14 01:43:14;;;;;;;10.13;5.68;;;;;;;13.53;50.23;100671.66;5001309;27;101062;-71
2023/05/14 01:45:40;;;;;;;8.30;6.05;;;;;;;13.59;49.43;100672.25;4997146;27;100570;-71
2023/05/14 01:48:06;;;;;;;9.77;6.53;;;;;;;13.82;48.95;100675.72;5018423;27;96707;-71
2023/05/14 01:50:31;;;;;;;9.63;5.78;;;;;;;13.72;49.76;100671.75;5005877;27;96974;-71
2023/05/14 01:52:57;;;;;;;9.75;5.68;;;;;;;13.68;49.15;100668.38;5033811;27;98059;-72
2023/05/14 01:55:23;;;;;;;14.15;6.30;;;;;;;13.78;49.33;100667.06;5052052;27;97808;-71
2023/05/14 01:57:49;;;;;;;10.70;5.72;;;;;;;13.65;49.31;100668.50;5018353;27;97225;-71
2023/05/14 02:00:15;;;;;;;10.05;5.55;;;;;;;13.54;49.81;100668.09;5016491;27;96821;-71
2023/05/14 02:02:41;;;;;;;9.75;6.63;;;;;;;13.59;49.66;100669.63;5035180;27;97902;-71
2023/05/14 02:05:09;;;;;;;8.35;5.95;;;;;;;13.48;49.72;100661.28;5017739;27;100849;-71
2023/05/14 02:07:35;;;;;;;12.65;6.78;;;;;;;13.51;50.10;100663.78;5017536;27;97102;-71
2023/05/14 02:10:00;;;;;;;10.65;5.90;;;;;;;13.54;50.43;100647.84;5035364;27;96849;-71
2023/05/14 02:12:27;;;;;;;8.82;6.03;;;;;;;13.49;50.74;100657.72;5011500;27;101481;-71
2023/05/14 02:14:52;;;;;;;10.98;6.13;;;;;;;13.68;49.93;100663.09;5034168;27;101085;-71
2023/05/14 02:17:18;;;;;;;11.68;6.07;;;;;;;13.55;49.90;100659.25;5012725;27;96830;-71
2023/05/14 02:19:44;;;;;;;9.70;5.85;;;;;;;13.48;50.32;100656.00;5017423;27;97581;-71
2023/05/14 02:22:09;;;;;;;8.95;6.45;;;;;;;12.98;51.23;100656.22;5034957;27;101725;-71
2023/05/14 02:24:35;;;;;;;13.38;6.20;;;;;;;12.99;51.45;100657.06;5033484;27;99865;-71
2023/05/14 02:27:00;;;;;;;9.85;6.90;;;;;;;12.85;51.25;100639.16;5068626;27;97311;-71
2023/05/14 02:29:26;;;;;;;10.50;6.22;;;;;;;12.71;51.55;100637.03;5070580;27;97257;-71
2023/05/14 02:31:52;;;;;;;11.27;5.88;;;;;;;13.01;51.64;100656.09;5071959;27;98043;-71
2023/05/14 02:34:17;;;;;;;12.05;6.10;;;;;;;13.03;51.44;100648.09;5054127;27;100544;-71
2023/05/14 02:36:43;;;;;;;10.60;6.03;;;;;;;13.20;50.95;100647.44;5054511;27;97060;-71
2023/05/14 02:39:08;;;;;;;13.15;6.13;;;;;;;13.35;50.69;100649.50;5054656;27;97055;-71
2023/05/14 02:41:34;;;;;;;10.00;5.93;;;;;;;13.42;50.06;100647.50;5070865;27;98487;-71
2023/05/14 02:44:00;;;;;;;13.05;5.55;;;;;;;13.24;50.68;100642.00;5054002;27;100963;-71
2023/05/14 02:46:25;;;;;;;9.40;5.55;;;;;;;13.21;50.79;100650.03;5071403;27;97067;-71
2023/05/14 02:48:51;;;;;;;11.23;5.78;;;;;;;13.26;50.66;100634.91;5069385;27;97246;-71
2023/05/14 02:51:19;;;;;;;9.73;6.40;;;;;;;13.27;50.61;100656.88;5047215;27;99628;-71
2023/05/14 02:53:44;;;;;;;9.45;6.25;;;;;;;13.21;50.99;100654.47;5048539;27;99519;-72
2023/05/14 02:56:10;;;;;;;9.68;5.95;;;;;;;12.95;51.35;100644.94;5055102;27;97606;-71
2023/05/14 02:58:35;;;;;;;12.98;5.43;;;;;;;13.18;51.02;100655.44;5071032;27;97181;-71
2023/05/14 03:01:01;;;;;;;8.93;5.68;;;;;;;13.09;50.76;100645.25;5033885;27;102366;-71
2023/05/14 03:03:28;;;;;;;10.38;4.93;;;;;;;13.21;51.21;100649.19;5066090;27;101440;-74
2023/05/14 03:05:54;;;;;;;8.82;5.43;;;;;;;13.26;51.00;100649.88;5071284;27;97319;-72
2023/05/14 03:08:19;;;;;;;13.10;6.45;;;;;;;13.29;50.43;100649.75;5053318;27;97358;-71
2023/05/14 03:10:45;;;;;;;10.85;5.78;;;;;;;13.27;50.88;100646.34;5037057;27;100204;-71
2023/05/14 03:13:10;;;;;;;13.15;6.07;;;;;;;13.23;51.06;100645.53;5071003;27;97612;-71
2023/05/14 03:15:36;;;;;;;10.60;6.72;;;;;;;13.18;50.94;100642.25;5072347;27;96713;-74
2023/05/14 03:18:01;;;;;;;10.80;5.72;;;;;;;12.85;52.04;100652.31;5053649;27;97028;-72
2023/05/14 03:20:27;;;;;;;10.98;6.03;;;;;;;12.88;51.91;100647.78;5052999;27;99629;-71
2023/05/14 03:22:53;;;;;;;11.02;6.22;;;;;;;12.88;51.87;100649.56;5071430;27;98014;-71
2023/05/14 03:25:19;;;;;;;14.25;7.03;;;;;;;12.91;52.05;100634.53;5052359;27;97153;-71
2023/05/14 03:27:45;;;;;;;16.80;6.18;;;;;;;12.98;51.38;100631.66;5071009;27;96776;-71
2023/05/14 03:30:11;;;;;;;11.27;6.05;;;;;;;13.21;50.82;100655.31;5069622;27;101492;-71
2023/05/14 03:32:36;;;;;;;13.75;5.60;;;;;;;13.19;51.26;100643.97;5070582;27;101959;-71
2023/05/14 03:35:02;;;;;;;9.32;6.20;;;;;;;13.34;51.23;100669.75;5071786;27;96953;-71
2023/05/14 03:37:28;;;;;;;13.55;7.40;;;;;;;13.05;51.43;100639.22;5070247;27;97382;-71
2023/05/14 03:39:53;;;;;;;12.50;5.90;;;;;;;13.05;51.04;100644.50;5036204;27;101463;-71
2023/05/14 03:42:19;;;;;;;13.68;6.53;;;;;;;13.09;51.76;100650.53;5053029;27;101355;-71
2023/05/14 03:44:44;;;;;;;16.80;6.63;;;;;;;13.27;51.64;100652.47;5053947;27;97069;-71
2023/05/14 03:47:10;;;;;;;10.25;6.78;;;;;;;12.86;52.93;100651.41;5053854;27;96989;-71
2023/05/14 03:49:36;;;;;;;10.63;6.85;;;;;;;12.95;52.21;100626.50;5062035;27;97923;-71
2023/05/14 03:52:01;;;;;;;10.63;6.60;;;;;;;13.06;52.14;100651.50;5069610;27;100620;-71
2023/05/14 03:54:27;;;;;;;11.77;6.55;;;;;;;13.36;51.19;100651.25;5069457;27;97261;-71
2023/05/14 03:56:52;;;;;;;17.52;6.88;;;;;;;13.38;51.46;100641.50;5070196;27;96829;-71
2023/05/14 03:59:18;;;;;;;13.82;6.45;;;;;;;13.43;51.03;100622.84;5069384;27;98088;-71
2023/05/14 04:01:43;;;;;;;9.57;6.07;;;;;;;13.45;51.18;100624.50;5070280;27;97943;-72
2023/05/14 04:04:09;;;;;;;15.38;6.53;;;;;;;13.58;50.69;100641.53;5071830;27;97239;-71
2023/05/14 04:06:35;;;;;;;11.55;6.60;;;;;;;13.43;51.11;100621.06;5035836;27;96948;-71
2023/05/14 04:09:01;;;;;;;8.68;6.25;;;;;;;13.82;50.32;100641.44;5052505;27;101471;-71
2023/05/14 04:11:27;;;;;;;10.35;6.90;;;;;;;13.95;50.20;100642.59;5071502;27;97905;-71
2023/05/14 04:13:52;;;;;;;10.18;6.10;;;;;;;14.01;50.02;100642.34;5066553;27;96895;-71
2023/05/14 04:16:18;;;;;;;12.30;5.97;;;;;;;14.30;49.56;100636.72;5051800;27;97943;-70
2023/05/14 04:18:44;;;;;;;11.95;7.10;;;;;;;14.34;48.76;100618.03;5069079;27;98011;-71
2023/05/14 04:21:09;;;;;;;12.75;6.18;;;;;;;14.12;49.41;100635.75;5053215;27;97936;-71
2023/05/14 04:23:35;;;;;;;14.07;6.63;;;;;;;14.38;49.27;100622.25;5069760;27;97541;-71
2023/05/14 04:26:00;;;;;;;9.48;6.50;;;;;;;14.60;48.74;100630.09;5069976;27;97554;-71
2023/05/14 04:28:26;;;;;;;12.10;6.53;;;;;;;14.80;48.17;100633.59;5068216;27;100944;-71
2023/05/14 04:30:51;;;;;;;13.77;6.55;;;;;;;14.96;47.74;100633.75;5070116;27;98152;-71
2023/05/14 04:33:17;;;;;;;17.38;7.07;;;;;;;14.90;48.06;100632.25;5069708;27;96746;-71
2023/05/14 04:35:44;;;;;;;10.07;6.80;;;;;;;15.13;47.10;100631.16;5039274;27;98051;-71
2023/05/14 04:38:10;;;;;;;9.60;6.65;;;;;;;15.17;47.54;100630.06;5052001;27;100368;-71
2023/05/14 04:40:36;;;;;;;9.13;6.82;;;;;;;14.97;47.92;100631.00;5035458;27;100953;-71
2023/05/14 04:43:02;;;;;;;12.75;7.18;;;;;;;14.73;48.12;100619.81;5052448;27;97175;-71
2023/05/14 04:45:27;;;;;;;13.65;7.45;;;;;;;15.19;47.58;100625.56;5034974;27;97345;-71
2023/05/14 04:47:53;;;;;;;13.00;7.55;;;;;;;15.28;47.22;100634.84;5069629;27;97497;-71
2023/05/14 04:50:18;;;;;;;9.93;7.50;;;;;;;15.42;47.14;100623.56;5060108;27;97964;-71
2023/05/14 04:52:44;;;;;;;10.35;7.05;;;;;;;15.50;46.61;100616.97;5053242;27;97251;-71
2023/05/14 04:55:09;;;;;;;11.55;7.38;;;;;;;15.72;46.57;100605.34;5069523;27;97147;-71
2023/05/14 04:57:35;;;;;;;12.68;7.22;;;;;;;15.42;46.91;100607.69;5069086;27;97482;-72
2023/05/14 05:00:01;;;;;;;11.57;7.40;;;;;;;15.30;47.01;100612.69;5052330;27;100971;-71
2023/05/14 05:02:26;;;;;;;15.65;7.68;;;;;;;15.57;46.98;100620.19;5052360;27;97403;-72
2023/05/14 05:04:52;;;;;;;12.68;7.38;;;;;;;15.18;47.22;100621.19;5049549;27;96867;-72
2023/05/14 05:07:17;;;;;;;15.30;8.73;;;;;;;15.26;46.91;100620.81;5048703;27;101696;-71
2023/05/14 05:09:43;;;;;;;19.33;9.43;;;;;;;15.65;46.49;100619.78;5032204;27;99776;-72
2023/05/14 05:12:09;;;;;;;14.23;8.65;;;;;;;15.95;46.08;100609.47;5062699;27;97278;-72
2023/05/14 05:14:34;;;;;;;17.08;9.70;;;;;;;16.36;45.52;100606.44;5027298;27;98217;-72
2023/05/14 05:17:00;;;;;;;19.30;9.82;;;;;;;16.81;44.71;100603.09;5061908;27;100066;-71
2023/05/14 05:19:25;;;;;;;15.77;8.70;;;;;;;17.01;43.52;100599.31;5044533;27;101412;-72
2023/05/14 05:21:51;;;;;;;15.90;9.00;;;;;;;16.90;43.42;100607.00;5060486;27;97228;-72
2023/05/14 05:24:17;;;;;;;13.73;8.13;;;;;;;17.40;43.38;100590.03;5056692;27;97357;-71
2023/05/14 05:26:42;;;;;;;14.73;8.30;;;;;;;17.99;41.82;100582.16;5059284;27;98920;-71
2023/05/14 05:29:08;;;;;;;13.57;7.07;;;;;;;18.62;41.32;100597.72;5036970;27;97392;-71
2023/05/14 05:31:33;;;;;;;12.15;6.78;;;;;;;18.94;40.17;100593.03;5068359;27;97143;-72
2023/05/14 05:33:59;;;;;;;15.23;7.22;;;;;;;19.28;39.55;100588.16;5069058;27;97582;-71
2023/05/14 05:36:25;;;;;;;12.38;6.88;;;;;;;20.46;37.98;100579.22;5047056;27;99310;-71
2023/05/14 05:38:51;;;;;;;16.20;7.63;;;;;;;21.89;35.32;100589.09;5068525;27;98008;-71
2023/05/14 05:41:16;;;;;;;11.07;7.00;;;;;;;22.22;34.99;100583.94;5070761;27;96690;-71
2023/05/14 05:43:42;;;;;;;16.27;7.15;;;;;;;22.32;34.84;100579.59;5070154;27;96788;-71
2023/05/14 05:46:07;;;;;;;8.90;6.50;;;;;;;21.74;35.42;100590.28;5057342;27;97507;-71
2023/05/14 05:48:33;;;;;;;8.52;6.28;;;;;;;21.36;35.78;100571.78;5065343;27;97451;-71
2023/05/14 05:50:59;;;;;;;16.40;6.38;;;;;;;20.37;37.66;100588.75;5021552;27;97342;-72
2023/05/14 05:53:24;;;;;;;8.80;6.57;;;;;;;20.44;37.59;100591.81;5048458;27;97249;-71
2023/05/14 05:55:53;;;;;;;9.68;6.22;;;;;;;19.89;38.85;100592.03;5046810;27;97535;-71
2023/05/14 05:58:18;;;;;;;10.68;6.22;;;;;;;19.65;39.18;100586.56;5041002;27;97636;-71
2023/05/14 06:00:45;;;;;;;9.65;5.93;;;;;;;19.70;39.15;100591.59;5047757;27;97266;-71
2023/05/14 06:03:11;;;;;;;11.35;6.70;;;;;;;19.82;38.98;100590.75;5050645;27;97584;-71
2023/05/14 06:05:36;;;;;;;11.18;6.63;;;;;;;19.94;38.87;100591.72;5049150;27;97418;-71
2023/05/14 06:08:02;;;;;;;9.85;6.63;;;;;;;19.17;39.99;100577.38;5067367;27;98086;-71
2023/05/14 06:10:28;;;;;;;10.75;6.45;;;;;;;19.36;39.81;100563.69;5038504;27;97918;-72
2023/05/14 06:12:54;;;;;;;10.32;6.80;;;;;;;20.28;38.60;100576.91;5051403;27;97325;-71
2023/05/14 06:15:20;;;;;;;9.88;6.28;;;;;;;20.15;38.97;100581.38;5046129;27;97948;-71
2023/05/14 06:17:45;;;;;;;17.33;6.85;;;;;;;19.58;39.37;100565.78;5063919;27;98679;-71
2023/05/14 06:20:11;;;;;;;10.77;6.70;;;;;;;18.99;40.44;100582.97;5029852;27;97402;-71
2023/05/14 06:22:37;;;;;;;11.77;6.20;;;;;;;19.41;39.57;100585.53;5065556;27;97251;-71
2023/05/14 06:25:03;;;;;;;10.23;6.75;;;;;;;18.87;40.89;100588.19;5047095;27;101405;-71
2023/05/14 06:27:28;;;;;;;9.48;6.60;;;;;;;18.54;41.44;100579.59;5008074;27;101246;-71
2023/05/14 06:29:54;;;;;;;10.93;6.07;;;;;;;18.33;41.16;100583.59;5006064;28;97400;-71
2023/05/14 06:32:19;;;;;;;9.55;6.88;;;;;;;17.87;42.97;100587.25;5026162;27;97579;-71
2023/05/14 06:34:45;;;;;;;13.05;6.97;;;;;;;20.33;38.56;100585.44;5029716;27;97443;-71
2023/05/14 06:37:11;;;;;;;14.80;7.85;;;;;;;24.15;32.80;100581.41;5009392;27;101097;-71
2023/05/14 06:39:37;;;;;;;11.15;6.65;;;;;;;29.60;26.66;100558.25;5021433;27;97939;-71
2023/05/14 06:42:03;;;;;;;15.35;6.95;;;;;;;33.23;22.18;100549.66;5011046;27;97247;-72
2023/05/14 06:44:30;;;;;;;9.05;7.05;;;;;;;34.18;20.64;100556.53;4986728;27;101450;-72
2023/05/14 06:46:56;;;;;;;9.00;6.43;;;;;;;35.12;19.63;100550.41;4998906;27;100953;-75
2023/05/14 06:49:21;;;;;;;10.60;6.72;;;;;;;38.88;17.29;100553.25;5025423;27;97223;-72
2023/05/14 06:51:47;;;;;;;9.65;6.43;;;;;;;40.86;15.65;100534.19;5028020;27;97381;-75
2023/05/14 06:54:12;;;;;;;9.32;6.72;;;;;;;43.42;14.05;100523.81;5027817;27;97649;-75
2023/05/14 06:56:38;;;;;;;9.40;6.03;;;;;;;45.40;13.10;100516.47;5016398;27;97992;-75
2023/05/14 06:59:03;;;;;;;7.57;6.65;;;;;;;44.23;13.48;100519.88;5027596;27;97312;-75
2023/05/14 07:01:29;;;;;;;6.75;5.82;;;;;;;47.20;12.05;100506.22;5010189;27;97404;-75
2023/05/14 07:03:55;;;;;;;8.35;5.25;;;;;;;48.36;10.97;100504.38;5029495;27;98567;-76
2023/05/14 07:06:21;;;;;;;7.55;4.43;;;;;;;47.69;11.39;100498.78;5049071;27;98673;-75
2023/05/14 07:08:47;;;;;;;6.32;4.47;;;;;;;48.34;11.10;100498.25;5016219;27;96733;-79
2023/05/14 07:11:13;;;;;;;5.82;4.57;;;;;;;49.32;10.24;100485.28;5033197;27;96875;-77
2023/05/14 07:13:39;;;;;;;9.50;3.92;;;;;;;48.01;10.88;100495.34;5031990;27;97629;-77
2023/05/14 07:16:06;;;;;;;4.65;3.58;;;;;;;49.77;10.11;100487.50;5015654;27;100935;-76
2023/05/14 07:18:31;;;;;;;6.18;4.10;;;;;;;50.60;9.99;100481.78;4998853;27;96760;-76
2023/05/14 07:20:57;;;;;;;4.45;4.00;;;;;;;50.64;10.06;100485.59;5014201;27;96948;-76
2023/05/14 07:23:22;;;;;;;4.43;3.72;;;;;;;49.28;10.05;100487.06;5050853;27;97459;-76
2023/05/14 07:25:48;;;;;;;4.05;3.60;;;;;;;50.19;9.61;100486.31;5044542;27;97447;-76
2023/05/14 07:28:13;;;;;;;4.55;3.63;;;;;;;50.99;9.38;100478.31;5052188;27;97407;-77
2023/05/14 07:30:39;;;;;;;3.63;3.33;;;;;;;50.18;9.09;100481.03;5069567;27;97331;-77
2023/05/14 07:33:05;;;;;;;4.75;3.58;;;;;;;51.73;8.75;100460.09;5069396;27;97248;-77
2023/05/14 07:35:30;;;;;;;3.80;3.50;;;;;;;52.61;8.78;100465.47;5068203;27;97447;-76
2023/05/14 07:37:56;;;;;;;6.63;4.00;;;;;;;52.21;8.54;100467.59;5047161;27;97112;-77
2023/05/14 07:40:23;;;;;;;4.10;3.70;;;;;;;52.85;8.50;100464.94;5066876;27;96919;-77
2023/05/14 07:42:49;;;;;;;5.33;3.90;;;;;;;51.70;8.61;100461.56;5018971;27;101059;-78
2023/05/14 07:45:15;;;;;;;4.10;3.70;;;;;;;53.00;8.62;100462.78;5068888;27;97317;-79
2023/05/14 07:47:40;;;;;;;7.53;4.07;;;;;;;54.80;8.21;100452.72;5038771;27;97085;-79
2023/05/14 07:50:06;;;;;;;4.43;3.63;;;;;;;56.36;6.85;100446.97;5070639;27;96785;-77
2023/05/14 07:52:32;;;;;;;3.58;3.28;;;;;;;53.26;8.04;100451.47;5069435;27;97311;-76
2023/05/14 07:54:58;;;;;;;5.53;3.88;;;;;;;52.80;8.31;100450.28;5070435;27;97329;-78
2023/05/14 07:57:25;;;;;;;3.53;3.22;;;;;;;53.01;8.77;100445.66;5051202;27;97260;-78
2023/05/14 07:59:50;;;;;;;4.18;3.78;;;;;;;52.80;8.55;100442.69;5051802;27;97293;-78
2023/05/14 08:02:16;;;;;;;4.22;3.83;;;;;;;52.87;8.50;100434.63;5051445;27;98207;-79
2023/05/14 08:04:42;;;;;;;4.10;3.80;;;;;;;53.15;8.37;100437.84;5064231;27;97845;-78
2023/05/14 08:07:07;;;;;;;4.18;3.75;;;;;;;47.00;10.35;100453.59;5065719;27;97201;-79
2023/05/14 08:09:33;;;;;;;5.13;3.65;;;;;;;48.12;10.06;100452.38;5049621;27;98176;-80
2023/05/14 08:11:59;;;;;;;4.88;3.83;;;;;;;50.34;9.39;100453.66;5033293;27;100797;-78
2023/05/14 08:14:24;;;;;;;3.53;3.22;;;;;;;49.54;9.41;100437.16;5066144;27;97301;-78
2023/05/14 08:16:50;;;;;;;16.83;9.73;;;;;;;52.75;8.29;100431.69;5060256;27;96771;-81
2023/05/14 08:19:15;;;;;;;8.35;5.88;;;;;;;53.88;8.06;100431.22;5058038;27;97394;-80
2023/05/14 08:21:41;;;;;;;3.88;3.58;;;;;;;52.42;8.62;100432.19;5031739;27;101553;-79
2023/05/14 08:24:07;;;;;;;41.45;23.80;;;;;;;52.77;8.87;100431.34;5042228;27;100424;-81
2023/05/14 08:26:32;;;;;;;4.10;3.70;;;;;;;53.98;7.79;100422.41;5051078;27;97416;-79
2023/05/14 08:28:59;;;;;;;4.10;3.80;;;;;;;54.58;7.68;100425.00;5058717;27;98938;-78
2023/05/14 08:31:24;;;;;;;3.88;3.58;;;;;;;55.97;7.37;100423.28;5046637;27;97498;-77
2023/05/14 08:33:50;;;;;;;88.35;47.30;;;;;;;55.82;9.04;100407.94;5066104;27;97447;-77
2023/05/14 08:36:15;;;;;;;5.40;4.80;;;;;;;54.51;7.61;100414.34;5069264;27;97799;-78
2023/05/14 08:38:41;;;;;;;18.05;11.20;;;;;;;54.14;8.10;100410.53;5068816;27;96781;-75
2023/05/14 08:41:07;;;;;;;5.47;3.88;;;;;;;49.26;9.47;100397.34;5044746;27;97934;-75
2023/05/14 08:43:44;;;;;;;5.53;4.25;;;;;;;49.60;9.44;100399.75;5048777;27;100711;-76
2023/05/14 08:46:12;;;;;;;3.65;3.28;;;;;;;46.95;10.76;100398.91;5034011;27;97927;-75
2023/05/14 08:48:39;;;;;;;4.80;4.22;;;;;;;48.66;9.90;100403.69;5043162;27;97152;-76
2023/05/14 08:51:05;;;;;;;3.53;2.60;;;;;;;42.38;12.60;100409.16;5047994;27;97820;-75
2023/05/14 08:53:31;;;;;;;3.80;2.78;;;;;;;38.21;15.42;100407.97;5068687;27;97470;-75
2023/05/14 08:55:57;;;;;;;2.33;2.13;;;;;;;35.69;17.44;100408.88;5069466;27;96810;-75
2023/05/14 08:58:25;;;;;;;2.38;2.17;;;;;;;35.24;18.12;100413.38;5069442;27;97293;-74
2023/05/14 09:00:52;;;;;;;4.28;2.08;;;;;;;31.90;21.00;100419.56;5068943;27;101679;-73
2023/05/14 09:03:18;;;;;;;3.17;1.95;;;;;;;31.39;21.75;100419.44;5050448;27;97729;-73
2023/05/14 09:05:44;;;;;;;2.25;1.95;;;;;;;29.90;22.64;100412.50;5045698;27;96912;-73
2023/05/14 09:08:10;;;;;;;3.15;2.20;;;;;;;27.61;25.32;100421.19;5049381;27;96897;-73
2023/05/14 09:10:36;;;;;;;3.25;2.40;;;;;;;28.87;24.26;100422.09;5064649;27;97978;-75
2023/05/14 09:13:01;;;;;;;2.30;1.95;;;;;;;29.18;24.89;100412.50;5045918;27;97385;-75
2023/05/14 09:15:28;;;;;;;3.30;2.17;;;;;;;29.18;24.39;100399.84;5029322;27;96846;-75
2023/05/14 09:17:54;;;;;;;6.03;2.38;;;;;;;29.36;24.82;100421.25;5056994;27;97156;-73
2023/05/14 09:20:20;;;;;;;2.80;1.77;;;;;;;27.52;25.43;100416.75;5050981;27;100717;-73
2023/05/14 09:22:45;;;;;;;2.72;2.15;;;;;;;26.98;26.83;100411.47;5035514;27;101730;-73
2023/05/14 09:25:11;;;;;;;2.85;1.92;;;;;;;27.21;28.39;100400.22;5052375;27;97281;-73
2023/05/14 09:27:37;;;;;;;2.63;1.88;;;;;;;28.39;27.03;100394.03;5070190;27;97143;-73
2023/05/14 09:30:12;;;;;;;3.63;2.20;;;;;;;28.05;26.51;100399.50;5051775;27;100846;-73
2023/05/14 09:32:42;;;;;;;3.65;2.10;;;;;;;26.09;27.21;100381.81;5069407;27;101219;-73
2023/05/14 09:35:32;;;;;;;2.58;1.90;;;;;;;25.65;27.81;100390.47;5045099;27;97318;-73
2023/05/14 09:37:58;;;;;;;3.65;2.20;;;;;;;24.78;28.32;100387.97;5052289;27;97225;-72
2023/05/14 09:40:24;;;;;;;4.72;1.85;;;;;;;25.89;28.29;100371.19;5057137;27;101463;-73
2023/05/14 09:42:49;;;;;;;3.58;2.35;;;;;;;26.09;27.42;100379.97;5047268;27;100890;-72
2023/05/14 09:45:16;;;;;;;2.35;2.13;;;;;;;25.63;29.85;100351.34;5022054;27;97417;-73
2023/05/14 09:47:41;;;;;;;2.05;1.85;;;;;;;25.68;28.56;100347.19;5047522;27;97254;-73
2023/05/14 09:50:07;;;;;;;2.88;2.13;;;;;;;26.05;28.72;100346.31;5064796;27;97722;-73
2023/05/14 09:52:33;;;;;;;1.88;1.63;;;;;;;25.99;28.42;100364.88;5058960;27;97474;-73
2023/05/14 09:54:59;;;;;;;3.70;2.00;;;;;;;26.04;29.16;100360.75;5062940;27;97148;-73
2023/05/14 09:57:25;;;;;;;4.60;2.22;;;;;;;25.27;30.61;100353.84;5030821;27;97534;-73
2023/05/14 09:59:52;;;;;;;4.55;1.60;;;;;;;24.96;29.28;100356.75;5045710;27;101279;-73
2023/05/14 10:02:25;;;;;;;4.70;1.90;;;;;;;25.27;31.81;100360.06;5066116;27;97502;-72
2023/05/14 10:04:53;;;;;;;3.83;1.90;;;;;;;25.48;32.63;100353.63;5057387;27;97338;-72
2023/05/14 10:07:28;;;;;;;2.63;1.67;;;;;;;25.98;29.75;100353.28;5065537;27;97818;-73
2023/05/14 10:09:57;;;;;;;2.15;1.60;;;;;;;24.81;28.83;100353.66;5057970;27;98044;-74
2023/05/14 10:12:24;;;;;;;3.97;1.83;;;;;;;23.84;30.90;100339.28;5026370;27;100992;-72
2023/05/14 10:14:52;;;;;;;2.42;1.38;;;;;;;24.62;30.38;100362.56;5047970;27;97340;-73
2023/05/14 10:17:20;;;;;;;4.60;1.77;;;;;;;25.07;30.72;100347.66;5059481;27;97624;-72
2023/05/14 10:19:50;;;;;;;2.35;1.70;;;;;;;24.44;31.89;100355.38;5045865;27;98204;-72
2023/05/14 10:22:16;;;;;;;3.80;1.75;;;;;;;24.54;30.36;100346.31;5046652;27;101096;-72
2023/05/14 10:24:42;;;;;;;2.03;1.70;;;;;;;24.66;31.36;100347.00;5035567;27;97138;-72
2023/05/14 10:27:08;;;;;;;5.25;1.90;;;;;;;24.54;30.64;100345.47;5061644;27;97432;-71
2023/05/14 10:29:35;;;;;;;2.58;1.80;;;;;;;24.96;31.54;100343.31;5066682;27;97604;-73
2023/05/14 10:32:05;;;;;;;5.68;1.92;;;;;;;24.92;29.59;100331.16;5063036;27;98054;-72
2023/05/14 10:34:33;;;;;;;3.03;1.73;;;;;;;25.28;30.57;100334.94;5050166;27;98284;-72
2023/05/14 10:37:00;;;;;;;2.22;2.00;;;;;;;25.13;29.96;100332.81;5063087;27;98827;-72
2023/05/14 10:39:56;;;;;;;5.50;2.17;;;;;;;24.40;31.77;100336.84;5053835;27;97503;-72
2023/05/14 10:42:27;;;;;;;3.13;1.70;;;;;;;24.14;30.07;100304.38;5057211;27;100709;-72
2023/05/14 10:44:54;;;;;;;1.73;1.30;;;;;;;24.57;29.77;100321.03;5067220;27;96792;-72
2023/05/14 10:47:20;;;;;;;5.35;1.70;;;;;;;24.42;29.86;100325.97;5072292;27;96891;-72
2023/05/14 10:49:49;;;;;;;2.22;1.60;;;;;;;23.47;30.55;100307.69;5070636;27;97493;-72
2023/05/14 10:52:17;;;;;;;3.85;1.90;;;;;;;23.57;31.28;100305.06;5054193;27;97630;-72
2023/05/14 10:55:02;;;;;;;3.70;1.75;;;;;;;23.85;32.81;100325.78;5053225;27;97220;-73
2023/05/14 10:57:30;;;;;;;2.55;1.80;;;;;;;23.78;31.74;100323.78;5053373;27;97278;-72
2023/05/14 10:59:57;;;;;;;4.40;1.70;;;;;;;22.99;32.05;100308.34;5037150;27;100958;-73
2023/05/14 11:02:35;;;;;;;3.38;1.58;;;;;;;23.06;32.15;100301.44;5071111;27;97447;-72
2023/05/14 11:05:02;;;;;;;3.63;1.80;;;;;;;23.03;31.94;100307.91;5071725;27;96807;-72
2023/05/14 11:07:36;;;;;;;2.10;1.60;;;;;;;22.57;33.15;100305.63;5072160;27;97103;-72
2023/05/14 11:10:02;;;;;;;3.00;1.70;;;;;;;22.22;33.46;100313.91;5071510;27;97415;-72
2023/05/14 11:12:27;;;;;;;3.97;1.50;;;;;;;22.05;33.09;100300.13;5070254;27;100990;-72
2023/05/14 11:14:56;;;;;;;1.55;1.40;;;;;;;22.12;32.62;100301.28;5054394;27;96772;-72
2023/05/14 11:17:22;;;;;;;2.28;1.70;;;;;;;22.42;32.01;100288.19;5070689;27;96824;-73
2023/05/14 11:19:47;;;;;;;2.17;1.98;;;;;;;22.77;31.43;100298.56;5048339;27;98028;-72